sensor_id;sensor_type;location;lat;lon;timestamp;P1;durP1;ratioP1;P2;durP2;ratioP2
74483;SDS011;62942;52.462;10.846;2023-09-18T00:00:42;6.4;;;9.1;;
74483;SDS011;62942;52.462;10.846;2023-09-18T00:01:52;6.9;;;8.8;;
74483;SDS011;62942;52.462;10.846;2023-09-18T00:02:52;6.6;;;9.7;;
74483;SDS011;62942;52.462;10.846;2023-09-18T00:03:52;6.7;;;7.9;;
74483;SDS011;62942;52.462;10.846;2023-09-18T00:04:52;6.6;;;8.2;;
74483;SDS011;62942;52.462;10.846;2023-09-18T00:06:02;6.6;;;7.4;;
74483;SDS011;62942;52.462;10.846;2023-09-18T00:07:12;6.7;;;9.4;;
74483;SDS011;62942;52.462;10.846;2023-09-18T00:08:12;6.6;;;8.1;;
74483;SDS011;62942;52.462;10.846;2023-09-18T00:09:22;6.7;;;8.2;;
74483;SDS011;62942;52.462;10.846;2023-09-18T00:10:32;6.8;;;7.7;;
74483;SDS011;62942;52.462;10.846;2023-09-18T00:11:32;6.9;;;8.1;;
74483;SDS011;62942;52.462;10.846;2023-09-18T00:12:42;6.5;;;8.5;;
74483;SDS011;62942;52.462;10.846;2023-09-18T00:13:52;6.5;;;8.5;;
74483;SDS011;62942;52.462;10.846;2023-09-18T00:14:52;6.9;;;8;;
74483;SDS011;62942;52.462;10.846;2023-09-18T00:15:53;6.8;;;8.4;;
74483;SDS011;62942;52.462;10.846;2023-09-18T00:17:02;7.3;;;9.6;;
74483;SDS011;62942;52.462;10.846;2023-09-18T00:18:02;6.8;;;8.1;;
74483;SDS011;62942;52.462;10.846;2023-09-18T00:19:12;6.9;;;7.8;;
74483;SDS011;62942;52.462;10.846;2023-09-18T00:20:12;6.9;;;8.1;;
74483;SDS011;62942;52.462;10.846;2023-09-18T00:21:12;6.9;;;7.8;;
74483;SDS011;62942;52.462;10.846;2023-09-18T00:22:21;6.6;;;7.5;;
74483;SDS011;62942;52.462;10.846;2023-09-18T00:23:21;7;;;8.8;;
74483;SDS011;62942;52.462;10.846;2023-09-18T00:24:32;6.8;;;9;;
74483;SDS011;62942;52.462;10.846;2023-09-18T00:25:42;7;;;8.7;;
74483;SDS011;62942;52.462;10.846;2023-09-18T00:26:42;6.9;;;7.8;;
74483;SDS011;62942;52.462;10.846;2023-09-18T00:27:51;7.2;;;8;;
74483;SDS011;62942;52.462;10.846;2023-09-18T00:29:02;7.2;;;8;;
74483;SDS011;62942;52.462;10.846;2023-09-18T00:30:02;6.9;;;8.2;;
74483;SDS011;62942;52.462;10.846;2023-09-18T00:31:11;6.7;;;7.5;;
74483;SDS011;62942;52.462;10.846;2023-09-18T00:32:12;7.4;;;9.3;;
74483;SDS011;62942;52.462;10.846;2023-09-18T00:33:21;6.9;;;7.9;;
74483;SDS011;62942;52.462;10.846;2023-09-18T00:34:32;7;;;8.7;;
74483;SDS011;62942;52.462;10.846;2023-09-18T00:35:44;6.9;;;8.1;;
74483;SDS011;62942;52.462;10.846;2023-09-18T00:36:51;7.2;;;9;;
74483;SDS011;62942;52.462;10.846;2023-09-18T00:37:51;6.9;;;10.1;;
74483;SDS011;62942;52.462;10.846;2023-09-18T00:38:51;7.2;;;9;;
74483;SDS011;62942;52.462;10.846;2023-09-18T00:40:02;7.4;;;9.4;;
74483;SDS011;62942;52.462;10.846;2023-09-18T00:41:11;7;;;8.9;;
74483;SDS011;62942;52.462;10.846;2023-09-18T00:42:22;7.1;;;8.3;;
74483;SDS011;62942;52.462;10.846;2023-09-18T00:43:31;7;;;11.3;;
74483;SDS011;62942;52.462;10.846;2023-09-18T00:44:41;7.3;;;8.6;;
74483;SDS011;62942;52.462;10.846;2023-09-18T00:45:51;7.3;;;9;;
74483;SDS011;62942;52.462;10.846;2023-09-18T00:47:02;7;;;9;;
74483;SDS011;62942;52.462;10.846;2023-09-18T00:48:02;7.1;;;8.3;;
74483;SDS011;62942;52.462;10.846;2023-09-18T00:49:01;7.2;;;8.4;;
74483;SDS011;62942;52.462;10.846;2023-09-18T00:50:11;7.1;;;8.9;;
74483;SDS011;62942;52.462;10.846;2023-09-18T00:51:11;6.8;;;7.8;;
74483;SDS011;62942;52.462;10.846;2023-09-18T00:52:11;7.4;;;9.1;;
74483;SDS011;62942;52.462;10.846;2023-09-18T00:53:12;7.3;;;10.3;;
74483;SDS011;62942;52.462;10.846;2023-09-18T00:54:11;7.1;;;8.5;;
74483;SDS011;62942;52.462;10.846;2023-09-18T00:55:12;7;;;8.5;;
74483;SDS011;62942;52.462;10.846;2023-09-18T00:56:21;7.2;;;8.3;;
74483;SDS011;62942;52.462;10.846;2023-09-18T00:57:21;6.8;;;8.1;;
74483;SDS011;62942;52.462;10.846;2023-09-18T00:58:21;6.9;;;8.4;;
74483;SDS011;62942;52.462;10.846;2023-09-18T00:59:31;7.2;;;8.4;;
74483;SDS011;62942;52.462;10.846;2023-09-18T01:00:41;7.1;;;8.9;;
74483;SDS011;62942;52.462;10.846;2023-09-18T01:01:42;7.4;;;9.1;;
74483;SDS011;62942;52.462;10.846;2023-09-18T01:02:51;7.2;;;8;;
74483;SDS011;62942;52.462;10.846;2023-09-18T01:04:01;7.4;;;8.8;;
74483;SDS011;62942;52.462;10.846;2023-09-18T01:05:02;7.3;;;8.7;;
74483;SDS011;62942;52.462;10.846;2023-09-18T01:06:11;7.3;;;8.3;;
74483;SDS011;62942;52.462;10.846;2023-09-18T01:07:11;7.4;;;9.1;;
74483;SDS011;62942;52.462;10.846;2023-09-18T01:08:21;7.6;;;9;;
74483;SDS011;62942;52.462;10.846;2023-09-18T01:09:21;7.8;;;9.9;;
74483;SDS011;62942;52.462;10.846;2023-09-18T01:10:32;7.8;;;10.5;;
74483;SDS011;62942;52.462;10.846;2023-09-18T01:11:34;7.4;;;8.4;;
74483;SDS011;62942;52.462;10.846;2023-09-18T01:12:33;7.6;;;10.3;;
74483;SDS011;62942;52.462;10.846;2023-09-18T01:13:34;7.6;;;9;;
74483;SDS011;62942;52.462;10.846;2023-09-18T01:14:42;7.4;;;9;;
74483;SDS011;62942;52.462;10.846;2023-09-18T01:15:52;7.5;;;9.4;;
74483;SDS011;62942;52.462;10.846;2023-09-18T01:17:02;7.6;;;12.3;;
74483;SDS011;62942;52.462;10.846;2023-09-18T01:18:11;7.7;;;9;;
74483;SDS011;62942;52.462;10.846;2023-09-18T01:19:12;7.5;;;8.5;;
74483;SDS011;62942;52.462;10.846;2023-09-18T01:20:21;7.5;;;8.7;;
74483;SDS011;62942;52.462;10.846;2023-09-18T01:21:21;7.3;;;9.1;;
74483;SDS011;62942;52.462;10.846;2023-09-18T01:22:31;7.8;;;9.9;;
74483;SDS011;62942;52.462;10.846;2023-09-18T01:23:31;7.2;;;8.6;;
74483;SDS011;62942;52.462;10.846;2023-09-18T01:24:32;7.8;;;10.8;;
74483;SDS011;62942;52.462;10.846;2023-09-18T01:25:41;7.4;;;10.1;;
74483;SDS011;62942;52.462;10.846;2023-09-18T01:26:41;7.8;;;9.2;;
74483;SDS011;62942;52.462;10.846;2023-09-18T01:27:51;7.5;;;9.3;;
74483;SDS011;62942;52.462;10.846;2023-09-18T01:29:01;7.5;;;9.6;;
74483;SDS011;62942;52.462;10.846;2023-09-18T01:30:01;7.2;;;8.4;;
74483;SDS011;62942;52.462;10.846;2023-09-18T01:31:11;7.6;;;8.8;;
74483;SDS011;62942;52.462;10.846;2023-09-18T01:33:21;7.6;;;8.9;;
74483;SDS011;62942;52.462;10.846;2023-09-18T01:34:32;7.5;;;8.8;;
74483;SDS011;62942;52.462;10.846;2023-09-18T01:35:31;7.2;;;8.2;;
74483;SDS011;62942;52.462;10.846;2023-09-18T01:36:41;7.2;;;8.2;;
74483;SDS011;62942;52.462;10.846;2023-09-18T01:37:41;7;;;8.1;;
74483;SDS011;62942;52.462;10.846;2023-09-18T01:38:51;7.4;;;9;;
74483;SDS011;62942;52.462;10.846;2023-09-18T01:40:02;7.2;;;8;;
74483;SDS011;62942;52.462;10.846;2023-09-18T01:41:11;7.3;;;8.8;;
74483;SDS011;62942;52.462;10.846;2023-09-18T01:42:21;7.4;;;8.7;;
74483;SDS011;62942;52.462;10.846;2023-09-18T01:43:31;7.2;;;8.6;;
74483;SDS011;62942;52.462;10.846;2023-09-18T01:44:32;7.5;;;8.9;;
74483;SDS011;62942;52.462;10.846;2023-09-18T01:45:41;7.3;;;9;;
74483;SDS011;62942;52.462;10.846;2023-09-18T01:46:41;7.5;;;8.4;;
74483;SDS011;62942;52.462;10.846;2023-09-18T01:47:52;7.6;;;8.6;;
74483;SDS011;62942;52.462;10.846;2023-09-18T01:49:01;7.3;;;9.8;;
74483;SDS011;62942;52.462;10.846;2023-09-18T01:50:11;7.3;;;9.1;;
74483;SDS011;62942;52.462;10.846;2023-09-18T01:51:21;7.1;;;8.2;;
74483;SDS011;62942;52.462;10.846;2023-09-18T01:52:21;7.3;;;8.2;;
74483;SDS011;62942;52.462;10.846;2023-09-18T01:53:31;7.3;;;8.7;;
74483;SDS011;62942;52.462;10.846;2023-09-18T01:54:41;7.6;;;9.9;;
74483;SDS011;62942;52.462;10.846;2023-09-18T01:55:41;7.3;;;8.5;;
74483;SDS011;62942;52.462;10.846;2023-09-18T01:56:52;7.7;;;9.1;;
74483;SDS011;62942;52.462;10.846;2023-09-18T01:58:01;7.7;;;9.3;;
74483;SDS011;62942;52.462;10.846;2023-09-18T01:59:12;7.7;;;9.1;;
74483;SDS011;62942;52.462;10.846;2023-09-18T02:00:21;7.5;;;8.5;;
74483;SDS011;62942;52.462;10.846;2023-09-18T02:01:31;7.4;;;9.1;;
74483;SDS011;62942;52.462;10.846;2023-09-18T02:02:31;7.6;;;8.6;;
74483;SDS011;62942;52.462;10.846;2023-09-18T02:03:41;7.6;;;9.2;;
74483;SDS011;62942;52.462;10.846;2023-09-18T02:04:41;7.5;;;8.4;;
74483;SDS011;62942;52.462;10.846;2023-09-18T02:05:51;7.4;;;9.5;;
74483;SDS011;62942;52.462;10.846;2023-09-18T02:07:01;7.6;;;10.2;;
74483;SDS011;62942;52.462;10.846;2023-09-18T02:08:02;7.7;;;9.5;;
74483;SDS011;62942;52.462;10.846;2023-09-18T02:09:11;7.5;;;9.1;;
74483;SDS011;62942;52.462;10.846;2023-09-18T02:10:21;7.4;;;9.2;;
74483;SDS011;62942;52.462;10.846;2023-09-18T02:11:21;7.9;;;10.4;;
74483;SDS011;62942;52.462;10.846;2023-09-18T02:12:31;7.7;;;8.9;;
74483;SDS011;62942;52.462;10.846;2023-09-18T02:13:41;7.6;;;8.9;;
74483;SDS011;62942;52.462;10.846;2023-09-18T02:14:51;7.4;;;12.1;;
74483;SDS011;62942;52.462;10.846;2023-09-18T02:16:01;7.7;;;10.9;;
74483;SDS011;62942;52.462;10.846;2023-09-18T02:17:11;7.6;;;9.7;;
74483;SDS011;62942;52.462;10.846;2023-09-18T02:18:21;7.7;;;8.7;;
74483;SDS011;62942;52.462;10.846;2023-09-18T02:19:31;7.9;;;10.8;;
74483;SDS011;62942;52.462;10.846;2023-09-18T02:20:41;7.9;;;9.5;;
74483;SDS011;62942;52.462;10.846;2023-09-18T02:21:51;8;;;10.3;;
74483;SDS011;62942;52.462;10.846;2023-09-18T02:22:51;7.5;;;9.5;;
74483;SDS011;62942;52.462;10.846;2023-09-18T02:24:01;7.7;;;10.1;;
74483;SDS011;62942;52.462;10.846;2023-09-18T02:25:11;7.9;;;9.1;;
74483;SDS011;62942;52.462;10.846;2023-09-18T02:26:11;8.2;;;10.4;;
74483;SDS011;62942;52.462;10.846;2023-09-18T02:27:21;8.3;;;9.4;;
74483;SDS011;62942;52.462;10.846;2023-09-18T02:28:21;8.5;;;9.9;;
74483;SDS011;62942;52.462;10.846;2023-09-18T02:29:21;8;;;10.7;;
74483;SDS011;62942;52.462;10.846;2023-09-18T02:30:31;7.7;;;9.1;;
74483;SDS011;62942;52.462;10.846;2023-09-18T02:31:31;7.6;;;8.5;;
74483;SDS011;62942;52.462;10.846;2023-09-18T02:32:31;8.3;;;11.3;;
74483;SDS011;62942;52.462;10.846;2023-09-18T02:33:31;8.2;;;9.5;;
74483;SDS011;62942;52.462;10.846;2023-09-18T02:34:41;8;;;9.3;;
74483;SDS011;62942;52.462;10.846;2023-09-18T02:35:51;8.1;;;11.2;;
74483;SDS011;62942;52.462;10.846;2023-09-18T02:37:01;8.1;;;9.6;;
74483;SDS011;62942;52.462;10.846;2023-09-18T02:38:11;8.2;;;9.7;;
74483;SDS011;62942;52.462;10.846;2023-09-18T02:39:11;8.1;;;10;;
74483;SDS011;62942;52.462;10.846;2023-09-18T02:40:21;8.3;;;9.9;;
74483;SDS011;62942;52.462;10.846;2023-09-18T02:41:31;8.2;;;10.7;;
74483;SDS011;62942;52.462;10.846;2023-09-18T02:42:41;8.3;;;9.7;;
74483;SDS011;62942;52.462;10.846;2023-09-18T02:43:42;8.1;;;10;;
74483;SDS011;62942;52.462;10.846;2023-09-18T02:44:51;7.8;;;9.4;;
74483;SDS011;62942;52.462;10.846;2023-09-18T02:45:51;8.3;;;10.3;;
74483;SDS011;62942;52.462;10.846;2023-09-18T02:47:01;7.9;;;9.9;;
74483;SDS011;62942;52.462;10.846;2023-09-18T02:48:11;8.2;;;9.4;;
74483;SDS011;62942;52.462;10.846;2023-09-18T02:49:21;8.5;;;10.2;;
74483;SDS011;62942;52.462;10.846;2023-09-18T02:50:31;7.9;;;9.5;;
74483;SDS011;62942;52.462;10.846;2023-09-18T02:51:41;8.2;;;9.4;;
74483;SDS011;62942;52.462;10.846;2023-09-18T02:52:51;8;;;10.1;;
74483;SDS011;62942;52.462;10.846;2023-09-18T02:53:51;8.1;;;10.9;;
74483;SDS011;62942;52.462;10.846;2023-09-18T02:54:51;8.1;;;9.3;;
74483;SDS011;62942;52.462;10.846;2023-09-18T02:56:01;8.2;;;9.5;;
74483;SDS011;62942;52.462;10.846;2023-09-18T02:57:11;8.1;;;10;;
74483;SDS011;62942;52.462;10.846;2023-09-18T02:58:11;7.8;;;9.2;;
74483;SDS011;62942;52.462;10.846;2023-09-18T02:59:11;8.1;;;9;;
74483;SDS011;62942;52.462;10.846;2023-09-18T03:00:21;7.9;;;8.8;;
74483;SDS011;62942;52.462;10.846;2023-09-18T03:01:31;8;;;10.2;;
74483;SDS011;62942;52.462;10.846;2023-09-18T03:02:31;7.7;;;9.4;;
74483;SDS011;62942;52.462;10.846;2023-09-18T03:03:41;8.2;;;9.9;;
74483;SDS011;62942;52.462;10.846;2023-09-18T03:04:51;7.8;;;9;;
74483;SDS011;62942;52.462;10.846;2023-09-18T03:06:01;8;;;11.3;;
74483;SDS011;62942;52.462;10.846;2023-09-18T03:07:01;7.8;;;9.7;;
74483;SDS011;62942;52.462;10.846;2023-09-18T03:08:12;8.2;;;10.3;;
74483;SDS011;62942;52.462;10.846;2023-09-18T03:09:11;8;;;10.4;;
74483;SDS011;62942;52.462;10.846;2023-09-18T03:10:11;7.6;;;9.5;;
74483;SDS011;62942;52.462;10.846;2023-09-18T03:11:21;7.9;;;10.5;;
74483;SDS011;62942;52.462;10.846;2023-09-18T03:12:31;7.5;;;9.1;;
74483;SDS011;62942;52.462;10.846;2023-09-18T03:13:43;7.9;;;9.9;;
74483;SDS011;62942;52.462;10.846;2023-09-18T03:14:41;7.8;;;9.6;;
74483;SDS011;62942;52.462;10.846;2023-09-18T03:15:51;7.8;;;10.3;;
74483;SDS011;62942;52.462;10.846;2023-09-18T03:16:51;7.6;;;9.7;;
74483;SDS011;62942;52.462;10.846;2023-09-18T03:18:02;7.7;;;10.3;;
74483;SDS011;62942;52.462;10.846;2023-09-18T03:19:01;8.1;;;10.4;;
74483;SDS011;62942;52.462;10.846;2023-09-18T03:20:01;7.9;;;9.9;;
74483;SDS011;62942;52.462;10.846;2023-09-18T03:21:11;7.6;;;10;;
74483;SDS011;62942;52.462;10.846;2023-09-18T03:22:21;7.7;;;10.9;;
74483;SDS011;62942;52.462;10.846;2023-09-18T03:23:21;7.3;;;11.3;;
74483;SDS011;62942;52.462;10.846;2023-09-18T03:24:31;7.7;;;10.6;;
74483;SDS011;62942;52.462;10.846;2023-09-18T03:25:41;7.5;;;8.4;;
74483;SDS011;62942;52.462;10.846;2023-09-18T03:26:51;7.1;;;8.7;;
74483;SDS011;62942;52.462;10.846;2023-09-18T03:28:01;7.6;;;9.2;;
74483;SDS011;62942;52.462;10.846;2023-09-18T03:29:11;7.4;;;8.6;;
74483;SDS011;62942;52.462;10.846;2023-09-18T03:30:22;7.7;;;10.9;;
74483;SDS011;62942;52.462;10.846;2023-09-18T03:31:31;7.5;;;9.1;;
74483;SDS011;62942;52.462;10.846;2023-09-18T03:32:41;7.5;;;8.9;;
74483;SDS011;62942;52.462;10.846;2023-09-18T03:33:51;7.5;;;10.1;;
74483;SDS011;62942;52.462;10.846;2023-09-18T03:35:01;7.9;;;10.2;;
74483;SDS011;62942;52.462;10.846;2023-09-18T03:36:11;7.9;;;9.8;;
74483;SDS011;62942;52.462;10.846;2023-09-18T03:37:11;8;;;10.5;;
74483;SDS011;62942;52.462;10.846;2023-09-18T03:38:21;7.8;;;10.6;;
74483;SDS011;62942;52.462;10.846;2023-09-18T03:39:21;7.7;;;9.2;;
74483;SDS011;62942;52.462;10.846;2023-09-18T03:40:31;7.9;;;9.6;;
74483;SDS011;62942;52.462;10.846;2023-09-18T03:41:41;7.6;;;10.2;;
74483;SDS011;62942;52.462;10.846;2023-09-18T03:42:41;8;;;9.8;;
74483;SDS011;62942;52.462;10.846;2023-09-18T03:43:41;7.6;;;9.2;;
74483;SDS011;62942;52.462;10.846;2023-09-18T03:44:41;8.1;;;10.4;;
74483;SDS011;62942;52.462;10.846;2023-09-18T03:45:51;7.7;;;10;;
74483;SDS011;62942;52.462;10.846;2023-09-18T03:46:51;7.6;;;10.8;;
74483;SDS011;62942;52.462;10.846;2023-09-18T03:48:01;7.8;;;10.1;;
74483;SDS011;62942;52.462;10.846;2023-09-18T03:49:01;7.9;;;8.8;;
74483;SDS011;62942;52.462;10.846;2023-09-18T03:50:11;7.6;;;10.4;;
74483;SDS011;62942;52.462;10.846;2023-09-18T03:51:11;8;;;10.2;;
74483;SDS011;62942;52.462;10.846;2023-09-18T03:52:21;7.8;;;10;;
74483;SDS011;62942;52.462;10.846;2023-09-18T03:53:21;7.6;;;9.6;;
74483;SDS011;62942;52.462;10.846;2023-09-18T03:54:31;7.6;;;8.5;;
74483;SDS011;62942;52.462;10.846;2023-09-18T03:55:41;7.4;;;9;;
74483;SDS011;62942;52.462;10.846;2023-09-18T03:56:51;7.5;;;10.3;;
74483;SDS011;62942;52.462;10.846;2023-09-18T03:57:51;7.7;;;8.9;;
74483;SDS011;62942;52.462;10.846;2023-09-18T03:59:01;7.6;;;10.3;;
74483;SDS011;62942;52.462;10.846;2023-09-18T04:00:11;7.5;;;8.7;;
74483;SDS011;62942;52.462;10.846;2023-09-18T04:01:11;7.5;;;10.1;;
74483;SDS011;62942;52.462;10.846;2023-09-18T04:02:21;7.6;;;9.1;;
74483;SDS011;62942;52.462;10.846;2023-09-18T04:03:21;7.7;;;10.7;;
74483;SDS011;62942;52.462;10.846;2023-09-18T04:04:31;7.5;;;9.3;;
74483;SDS011;62942;52.462;10.846;2023-09-18T04:05:31;7.4;;;8.9;;
74483;SDS011;62942;52.462;10.846;2023-09-18T04:06:40;7.8;;;10.6;;
74483;SDS011;62942;52.462;10.846;2023-09-18T04:07:41;7.4;;;9.4;;
74483;SDS011;62942;52.462;10.846;2023-09-18T04:08:51;7.2;;;9.4;;
74483;SDS011;62942;52.462;10.846;2023-09-18T04:09:51;7.5;;;10;;
74483;SDS011;62942;52.462;10.846;2023-09-18T04:11:01;7.4;;;8.8;;
74483;SDS011;62942;52.462;10.846;2023-09-18T04:12:11;7.4;;;9.3;;
74483;SDS011;62942;52.462;10.846;2023-09-18T04:13:21;7.6;;;10.3;;
74483;SDS011;62942;52.462;10.846;2023-09-18T04:14:31;7.3;;;9.2;;
74483;SDS011;62942;52.462;10.846;2023-09-18T04:15:31;7.3;;;9.8;;
74483;SDS011;62942;52.462;10.846;2023-09-18T04:16:41;7.5;;;9.1;;
74483;SDS011;62942;52.462;10.846;2023-09-18T04:17:41;7.4;;;9.5;;
74483;SDS011;62942;52.462;10.846;2023-09-18T04:18:41;7.7;;;9.2;;
74483;SDS011;62942;52.462;10.846;2023-09-18T04:19:51;7.5;;;9.4;;
74483;SDS011;62942;52.462;10.846;2023-09-18T04:21:01;7.7;;;9.1;;
74483;SDS011;62942;52.462;10.846;2023-09-18T04:22:12;7.6;;;11;;
74483;SDS011;62942;52.462;10.846;2023-09-18T04:23:22;7.5;;;9.4;;
74483;SDS011;62942;52.462;10.846;2023-09-18T04:24:21;7.9;;;10.1;;
74483;SDS011;62942;52.462;10.846;2023-09-18T04:25:31;7.9;;;10.6;;
74483;SDS011;62942;52.462;10.846;2023-09-18T04:26:41;7.7;;;9.9;;
74483;SDS011;62942;52.462;10.846;2023-09-18T04:27:41;7.7;;;9.5;;
74483;SDS011;62942;52.462;10.846;2023-09-18T04:28:51;7.6;;;8.5;;
74483;SDS011;62942;52.462;10.846;2023-09-18T04:29:51;7.4;;;8.5;;
74483;SDS011;62942;52.462;10.846;2023-09-18T04:31:01;8;;;10.9;;
74483;SDS011;62942;52.462;10.846;2023-09-18T04:32:11;7.4;;;10.7;;
74483;SDS011;62942;52.462;10.846;2023-09-18T04:33:22;7.8;;;9.5;;
74483;SDS011;62942;52.462;10.846;2023-09-18T04:34:31;7.7;;;9.4;;
74483;SDS011;62942;52.462;10.846;2023-09-18T04:35:42;7.5;;;8.7;;
74483;SDS011;62942;52.462;10.846;2023-09-18T04:36:51;7.8;;;11.5;;
74483;SDS011;62942;52.462;10.846;2023-09-18T04:38:01;7.8;;;10.1;;
74483;SDS011;62942;52.462;10.846;2023-09-18T04:39:11;7.7;;;10.7;;
74483;SDS011;62942;52.462;10.846;2023-09-18T04:40:11;7.7;;;10.3;;
74483;SDS011;62942;52.462;10.846;2023-09-18T04:41:21;8;;;9.2;;
74483;SDS011;62942;52.462;10.846;2023-09-18T04:42:31;7.6;;;9.6;;
74483;SDS011;62942;52.462;10.846;2023-09-18T04:43:41;7.6;;;10;;
74483;SDS011;62942;52.462;10.846;2023-09-18T04:44:51;7.6;;;9.8;;
74483;SDS011;62942;52.462;10.846;2023-09-18T04:46:02;7.6;;;9.6;;
74483;SDS011;62942;52.462;10.846;2023-09-18T04:47:11;7.7;;;11.1;;
74483;SDS011;62942;52.462;10.846;2023-09-18T04:48:21;7.6;;;9.9;;
74483;SDS011;62942;52.462;10.846;2023-09-18T04:49:21;7.7;;;9.8;;
74483;SDS011;62942;52.462;10.846;2023-09-18T04:50:21;7.6;;;9.5;;
74483;SDS011;62942;52.462;10.846;2023-09-18T04:51:31;7.7;;;10.4;;
74483;SDS011;62942;52.462;10.846;2023-09-18T04:52:41;7.4;;;10.1;;
74483;SDS011;62942;52.462;10.846;2023-09-18T04:53:51;7.9;;;11.2;;
74483;SDS011;62942;52.462;10.846;2023-09-18T04:55:01;7.2;;;8.9;;
74483;SDS011;62942;52.462;10.846;2023-09-18T04:56:11;7.3;;;9.3;;
74483;SDS011;62942;52.462;10.846;2023-09-18T04:57:21;7.6;;;11.8;;
74483;SDS011;62942;52.462;10.846;2023-09-18T04:58:31;7.6;;;9.4;;
74483;SDS011;62942;52.462;10.846;2023-09-18T04:59:41;7.2;;;8.9;;
74483;SDS011;62942;52.462;10.846;2023-09-18T05:00:41;7.8;;;10.2;;
74483;SDS011;62942;52.462;10.846;2023-09-18T05:01:51;7.4;;;10.6;;
74483;SDS011;62942;52.462;10.846;2023-09-18T05:03:01;7.5;;;9.6;;
74483;SDS011;62942;52.462;10.846;2023-09-18T05:04:11;7.4;;;9.9;;
74483;SDS011;62942;52.462;10.846;2023-09-18T05:05:21;7.5;;;11.4;;
74483;SDS011;62942;52.462;10.846;2023-09-18T05:06:31;7.3;;;10.1;;
74483;SDS011;62942;52.462;10.846;2023-09-18T05:07:31;7.4;;;10.1;;
74483;SDS011;62942;52.462;10.846;2023-09-18T05:08:41;7.3;;;8.9;;
74483;SDS011;62942;52.462;10.846;2023-09-18T05:09:51;7.8;;;10;;
74483;SDS011;62942;52.462;10.846;2023-09-18T05:11:01;7.4;;;9.7;;
74483;SDS011;62942;52.462;10.846;2023-09-18T05:12:04;7.1;;;9.9;;
74483;SDS011;62942;52.462;10.846;2023-09-18T05:13:12;7.6;;;8.8;;
74483;SDS011;62942;52.462;10.846;2023-09-18T05:14:21;7.2;;;8.6;;
74483;SDS011;62942;52.462;10.846;2023-09-18T05:15:21;7.3;;;8.9;;
74483;SDS011;62942;52.462;10.846;2023-09-18T05:16:21;7.5;;;10.1;;
74483;SDS011;62942;52.462;10.846;2023-09-18T05:17:39;7.2;;;8.6;;
74483;SDS011;62942;52.462;10.846;2023-09-18T05:18:41;7.4;;;9.8;;
74483;SDS011;62942;52.462;10.846;2023-09-18T05:19:51;7.1;;;8.7;;
74483;SDS011;62942;52.462;10.846;2023-09-18T05:20:51;7;;;8.5;;
74483;SDS011;62942;52.462;10.846;2023-09-18T05:22:01;7.1;;;10;;
74483;SDS011;62942;52.462;10.846;2023-09-18T05:23:01;6.9;;;8.8;;
74483;SDS011;62942;52.462;10.846;2023-09-18T05:24:11;7.2;;;12.9;;
74483;SDS011;62942;52.462;10.846;2023-09-18T05:25:21;6.8;;;9;;
74483;SDS011;62942;52.462;10.846;2023-09-18T05:26:31;6.9;;;10;;
74483;SDS011;62942;52.462;10.846;2023-09-18T05:27:31;6.9;;;8.8;;
74483;SDS011;62942;52.462;10.846;2023-09-18T05:28:41;6.8;;;9;;
74483;SDS011;62942;52.462;10.846;2023-09-18T05:29:41;6.8;;;9.1;;
74483;SDS011;62942;52.462;10.846;2023-09-18T05:30:41;6.7;;;8.7;;
74483;SDS011;62942;52.462;10.846;2023-09-18T05:31:51;6.6;;;9.1;;
74483;SDS011;62942;52.462;10.846;2023-09-18T05:33:02;6.6;;;9.9;;
74483;SDS011;62942;52.462;10.846;2023-09-18T05:34:01;6.8;;;9;;
74483;SDS011;62942;52.462;10.846;2023-09-18T05:35:01;7;;;9;;
74483;SDS011;62942;52.462;10.846;2023-09-18T05:36:12;6.6;;;9.6;;
74483;SDS011;62942;52.462;10.846;2023-09-18T05:37:11;6.6;;;8.5;;
74483;SDS011;62942;52.462;10.846;2023-09-18T05:38:21;6.6;;;8.8;;
74483;SDS011;62942;52.462;10.846;2023-09-18T05:39:31;6.4;;;7.8;;
74483;SDS011;62942;52.462;10.846;2023-09-18T05:40:41;6.3;;;8.7;;
74483;SDS011;62942;52.462;10.846;2023-09-18T05:41:41;6.1;;;8.2;;
74483;SDS011;62942;52.462;10.846;2023-09-18T05:42:51;6.2;;;8.4;;
74483;SDS011;62942;52.462;10.846;2023-09-18T05:43:51;6;;;7.8;;
74483;SDS011;62942;52.462;10.846;2023-09-18T05:45:01;6;;;8.2;;
74483;SDS011;62942;52.462;10.846;2023-09-18T05:46:11;6;;;8.1;;
74483;SDS011;62942;52.462;10.846;2023-09-18T05:47:11;5.5;;;7.5;;
74483;SDS011;62942;52.462;10.846;2023-09-18T05:48:11;5.9;;;8.1;;
74483;SDS011;62942;52.462;10.846;2023-09-18T05:49:11;5.9;;;8.5;;
74483;SDS011;62942;52.462;10.846;2023-09-18T05:50:21;5.8;;;6.8;;
74483;SDS011;62942;52.462;10.846;2023-09-18T05:51:21;5.7;;;6.9;;
74483;SDS011;62942;52.462;10.846;2023-09-18T05:52:31;5.5;;;8.4;;
74483;SDS011;62942;52.462;10.846;2023-09-18T05:53:41;5.6;;;6.6;;
74483;SDS011;62942;52.462;10.846;2023-09-18T05:54:41;5.6;;;7.5;;
74483;SDS011;62942;52.462;10.846;2023-09-18T05:55:41;5.5;;;7.6;;
74483;SDS011;62942;52.462;10.846;2023-09-18T05:56:51;5.7;;;8.3;;
74483;SDS011;62942;52.462;10.846;2023-09-18T05:58:01;5.7;;;9.5;;
74483;SDS011;62942;52.462;10.846;2023-09-18T05:59:01;5.4;;;6.6;;
74483;SDS011;62942;52.462;10.846;2023-09-18T06:00:01;5.6;;;8.4;;
74483;SDS011;62942;52.462;10.846;2023-09-18T06:01:01;5.7;;;7.6;;
74483;SDS011;62942;52.462;10.846;2023-09-18T06:02:11;5.8;;;8.6;;
74483;SDS011;62942;52.462;10.846;2023-09-18T06:03:21;5.6;;;7.6;;
74483;SDS011;62942;52.462;10.846;2023-09-18T06:04:21;5.4;;;6.7;;
74483;SDS011;62942;52.462;10.846;2023-09-18T06:05:21;5.8;;;8.4;;
74483;SDS011;62942;52.462;10.846;2023-09-18T06:06:31;5.6;;;7.1;;
74483;SDS011;62942;52.462;10.846;2023-09-18T06:07:41;5.8;;;6.9;;
74483;SDS011;62942;52.462;10.846;2023-09-18T06:08:41;5.5;;;8.3;;
74483;SDS011;62942;52.462;10.846;2023-09-18T06:09:41;5.8;;;7.5;;
74483;SDS011;62942;52.462;10.846;2023-09-18T06:10:41;5.5;;;7.4;;
74483;SDS011;62942;52.462;10.846;2023-09-18T06:11:41;5.7;;;8.8;;
74483;SDS011;62942;52.462;10.846;2023-09-18T06:12:51;5.3;;;8.3;;
74483;SDS011;62942;52.462;10.846;2023-09-18T06:14:01;5.6;;;7.7;;
74483;SDS011;62942;52.462;10.846;2023-09-18T06:15:11;5.6;;;7.1;;
74483;SDS011;62942;52.462;10.846;2023-09-18T06:16:21;5.5;;;6.9;;
74483;SDS011;62942;52.462;10.846;2023-09-18T06:17:31;5.6;;;8.4;;
74483;SDS011;62942;52.462;10.846;2023-09-18T06:18:41;5.5;;;9.6;;
74483;SDS011;62942;52.462;10.846;2023-09-18T06:19:51;5.5;;;7.5;;
74483;SDS011;62942;52.462;10.846;2023-09-18T06:21:01;5.2;;;7;;
74483;SDS011;62942;52.462;10.846;2023-09-18T06:22:01;5.1;;;6.8;;
74483;SDS011;62942;52.462;10.846;2023-09-18T06:23:01;5.3;;;8.1;;
74483;SDS011;62942;52.462;10.846;2023-09-18T06:24:11;5;;;6.1;;
74483;SDS011;62942;52.462;10.846;2023-09-18T06:25:21;5;;;6;;
74483;SDS011;62942;52.462;10.846;2023-09-18T06:26:31;4.8;;;5.9;;
74483;SDS011;62942;52.462;10.846;2023-09-18T06:27:33;4.7;;;6;;
74483;SDS011;62942;52.462;10.846;2023-09-18T06:28:31;5;;;6.6;;
74483;SDS011;62942;52.462;10.846;2023-09-18T06:29:41;4.8;;;7.2;;
74483;SDS011;62942;52.462;10.846;2023-09-18T06:30:41;4.8;;;6.6;;
74483;SDS011;62942;52.462;10.846;2023-09-18T06:31:51;4.6;;;5.9;;
74483;SDS011;62942;52.462;10.846;2023-09-18T06:33:01;4.8;;;6.2;;
74483;SDS011;62942;52.462;10.846;2023-09-18T06:34:11;4.5;;;5.6;;
74483;SDS011;62942;52.462;10.846;2023-09-18T06:35:11;4.5;;;5.8;;
74483;SDS011;62942;52.462;10.846;2023-09-18T06:36:11;4.4;;;7.7;;
74483;SDS011;62942;52.462;10.846;2023-09-18T06:37:11;4.6;;;6.9;;
74483;SDS011;62942;52.462;10.846;2023-09-18T06:38:21;4.4;;;6.9;;
74483;SDS011;62942;52.462;10.846;2023-09-18T06:39:21;4.7;;;11.5;;
74483;SDS011;62942;52.462;10.846;2023-09-18T06:40:31;4.6;;;6.4;;
74483;SDS011;62942;52.462;10.846;2023-09-18T06:41:31;4.3;;;7.8;;
74483;SDS011;62942;52.462;10.846;2023-09-18T06:42:41;3.9;;;6.1;;
74483;SDS011;62942;52.462;10.846;2023-09-18T06:43:41;3.9;;;6;;
74483;SDS011;62942;52.462;10.846;2023-09-18T06:44:51;4;;;8.2;;
74483;SDS011;62942;52.462;10.846;2023-09-18T06:46:01;3.9;;;4.9;;
74483;SDS011;62942;52.462;10.846;2023-09-18T06:47:01;4;;;5.7;;